createdAt,value
2022-10-10T00:01:34.952Z,71.74
2022-10-10T00:04:06.559Z,71.81
2022-10-10T00:06:37.396Z,71.85
2022-10-10T00:09:08.607Z,71.84
2022-10-10T00:11:39.419Z,71.94
2022-10-10T00:14:10.296Z,71.89
2022-10-10T00:16:41.161Z,71.78
2022-10-10T00:19:12.438Z,71.79
2022-10-10T00:21:44.157Z,71.89
2022-10-10T00:24:15.352Z,71.96
2022-10-10T00:26:46.139Z,71.84
2022-10-10T00:29:17.231Z,71.77
2022-10-10T00:31:48.070Z,71.86
2022-10-10T00:34:19.034Z,71.94
2022-10-10T00:36:49.833Z,72.06
2022-10-10T00:39:20.663Z,71.98
2022-10-10T00:41:51.713Z,71.95
2022-10-10T00:44:25.034Z,72.04
2022-10-10T00:46:55.897Z,72.00
2022-10-10T00:49:31.919Z,72.05
2022-10-10T00:52:03.348Z,71.92
2022-10-10T00:54:34.881Z,72.14
2022-10-10T00:57:10.147Z,72.17
2022-10-10T00:59:41.800Z,72.15
2022-10-10T01:02:11.342Z,72.36
2022-10-10T01:04:45.471Z,72.46
2022-10-10T01:07:17.045Z,72.55
2022-10-10T01:09:47.564Z,72.41
2022-10-10T01:12:21.280Z,72.30
2022-10-10T01:14:56.526Z,72.27
2022-10-10T01:17:28.156Z,72.30
2022-10-10T01:20:19.986Z,72.29
2022-10-10T01:22:54.987Z,72.14
2022-10-10T01:25:28.777Z,72.01
2022-10-10T01:28:02.479Z,72.09
2022-10-10T01:30:32.118Z,72.04
2022-10-10T01:33:06.215Z,71.76
2022-10-10T01:35:41.027Z,71.68
2022-10-10T01:38:23.775Z,71.77
2022-10-10T01:40:54.988Z,71.73
2022-10-10T01:43:25.022Z,71.56
2022-10-10T01:45:55.541Z,71.34
2022-10-10T01:48:26.456Z,71.27
2022-10-10T01:51:05.011Z,71.15
2022-10-10T01:53:42.704Z,71.10
2022-10-10T01:56:15.881Z,71.42
2022-10-10T01:58:53.611Z,71.60
2022-10-10T02:01:27.699Z,71.54
2022-10-10T02:04:03.239Z,71.40
2022-10-10T02:06:34.758Z,71.46
2022-10-10T02:09:06.463Z,71.41
2022-10-10T02:11:38.058Z,71.41
2022-10-10T02:14:12.562Z,71.39
2022-10-10T02:16:44.152Z,71.64
2022-10-10T02:19:16.823Z,71.40
2022-10-10T02:21:46.620Z,71.54
2022-10-10T02:24:16.743Z,71.73
2022-10-10T02:26:50.736Z,71.60
2022-10-10T02:29:22.903Z,71.78
2022-10-10T02:31:58.118Z,71.67
2022-10-10T02:34:30.611Z,71.57
2022-10-10T02:37:01.977Z,71.45
2022-10-10T02:39:32.924Z,71.90
2022-10-10T02:42:03.562Z,72.11
2022-10-10T02:44:33.337Z,72.30
2022-10-10T02:47:02.611Z,72.68
2022-10-10T02:49:32.894Z,72.89
2022-10-10T02:52:02.693Z,73.06
2022-10-10T02:54:31.949Z,73.12
2022-10-10T02:57:01.202Z,72.96
2022-10-10T02:59:30.515Z,73.05
2022-10-10T03:01:59.748Z,72.83
2022-10-10T03:04:28.946Z,73.17
2022-10-10T03:06:58.314Z,73.10
2022-10-10T03:09:27.694Z,73.10
2022-10-10T03:11:57.260Z,73.44
2022-10-10T03:14:26.807Z,73.65
2022-10-10T03:16:56.063Z,73.42
2022-10-10T03:19:25.359Z,73.30
2022-10-10T03:21:54.585Z,73.16
2022-10-10T03:24:23.861Z,72.98
2022-10-10T03:26:53.075Z,72.70
2022-10-10T03:29:22.660Z,72.69
2022-10-10T03:31:51.918Z,72.52
2022-10-10T03:34:21.146Z,72.61
2022-10-10T03:36:50.393Z,72.80
2022-10-10T03:39:19.635Z,72.90
2022-10-10T03:41:50.429Z,72.83
2022-10-10T03:44:20.288Z,72.63
2022-10-10T03:46:49.878Z,72.72
2022-10-10T03:49:19.059Z,72.80
2022-10-10T03:51:48.265Z,72.79
2022-10-10T03:54:17.505Z,72.63
2022-10-10T03:56:46.799Z,72.34
2022-10-10T03:59:15.955Z,72.90
2022-10-10T04:01:45.228Z,72.96
2022-10-10T04:04:14.504Z,72.88
2022-10-10T04:06:43.681Z,73.04
2022-10-10T04:09:12.902Z,73.24
2022-10-10T04:11:43.364Z,73.19
2022-10-10T04:14:12.602Z,73.14
2022-10-10T04:16:41.800Z,73.34
2022-10-10T04:19:11.096Z,73.29
2022-10-10T04:21:40.361Z,73.46
2022-10-10T04:24:10.033Z,73.76
2022-10-10T04:26:39.426Z,73.56
2022-10-10T04:29:08.990Z,73.49
2022-10-10T04:31:38.224Z,73.67
2022-10-10T04:34:07.444Z,73.68
2022-10-10T04:36:37.012Z,73.78
2022-10-10T04:39:06.338Z,73.73
2022-10-10T04:41:35.934Z,73.93
2022-10-10T04:44:05.131Z,73.73
2022-10-10T04:46:34.361Z,73.95
2022-10-10T04:49:03.615Z,73.95
2022-10-10T04:51:33.062Z,73.85
2022-10-10T04:54:02.311Z,73.96
2022-10-10T04:56:31.651Z,73.98
2022-10-10T04:59:00.847Z,73.99
2022-10-10T05:01:30.149Z,74.19
2022-10-10T05:03:59.439Z,74.33
2022-10-10T05:06:28.742Z,74.13
2022-10-10T05:09:01.015Z,74.08
2022-10-10T05:11:30.256Z,74.06
2022-10-10T05:13:59.464Z,74.18
2022-10-10T05:16:28.680Z,74.12
2022-10-10T05:18:58.429Z,73.93
2022-10-10T05:21:28.015Z,73.78
2022-10-10T05:23:57.213Z,73.58
2022-10-10T05:26:28.987Z,73.58
2022-10-10T05:28:58.319Z,73.20
2022-10-10T05:31:27.652Z,73.18
2022-10-10T05:33:57.039Z,73.29
2022-10-10T05:36:26.224Z,73.17
2022-10-10T05:38:55.571Z,73.00
2022-10-10T05:41:25.256Z,73.02
2022-10-10T05:43:54.492Z,73.33
2022-10-10T05:46:24.862Z,73.69
2022-10-10T05:48:54.501Z,73.66
2022-10-10T05:51:23.719Z,73.46
2022-10-10T05:53:53.038Z,72.80
2022-10-10T05:56:23.516Z,72.62
2022-10-10T05:58:53.665Z,71.85
2022-10-10T06:01:22.986Z,71.17
2022-10-10T06:03:56.039Z,69.96
2022-10-10T06:06:26.042Z,69.01
2022-10-10T06:08:56.082Z,68.23
2022-10-10T06:11:26.230Z,67.68
2022-10-10T06:13:55.867Z,67.04
2022-10-10T06:16:26.108Z,64.92
2022-10-10T06:18:56.989Z,64.06
2022-10-10T06:21:26.232Z,63.34
2022-10-10T06:23:55.599Z,62.77
2022-10-10T06:26:24.813Z,61.98
2022-10-10T06:28:54.057Z,61.47
2022-10-10T06:31:23.289Z,60.73
2022-10-10T06:33:53.274Z,59.36
2022-10-10T06:36:22.524Z,57.74
2022-10-10T06:38:51.842Z,57.23
2022-10-10T06:41:21.168Z,57.01
2022-10-10T06:43:51.814Z,55.82
2022-10-10T06:46:21.078Z,55.32
2022-10-10T06:48:50.395Z,54.41
2022-10-10T06:51:19.988Z,55.28
2022-10-10T06:53:49.404Z,54.55
2022-10-10T06:56:27.358Z,53.75
2022-10-10T06:58:57.748Z,53.31
2022-10-10T07:01:29.572Z,52.98
2022-10-10T07:03:59.515Z,52.33
2022-10-10T07:06:33.917Z,50.75
2022-10-10T07:09:04.241Z,49.77
2022-10-10T07:11:34.133Z,49.81
2022-10-10T07:14:03.427Z,49.39
2022-10-10T07:16:34.186Z,48.81
2022-10-10T07:19:03.423Z,48.09
2022-10-10T07:21:32.660Z,47.87
2022-10-10T07:24:01.891Z,47.92
2022-10-10T07:26:38.202Z,47.52
2022-10-10T07:29:07.695Z,47.32
2022-10-10T07:31:36.960Z,46.97
2022-10-10T07:34:06.483Z,47.05
2022-10-10T07:36:36.025Z,46.50
2022-10-10T07:39:05.273Z,45.54
2022-10-10T07:41:34.488Z,44.74
2022-10-10T07:44:03.984Z,44.68
2022-10-10T07:46:33.612Z,44.04
2022-10-10T07:49:02.903Z,43.25
2022-10-10T07:51:32.157Z,44.20
2022-10-10T07:54:01.551Z,44.05
2022-10-10T07:56:30.716Z,43.86
2022-10-10T07:59:00.295Z,44.15
2022-10-10T08:01:29.656Z,43.33
2022-10-10T08:03:59.980Z,42.65
2022-10-10T08:06:29.361Z,42.90
2022-10-10T08:08:58.594Z,42.72
2022-10-10T08:11:28.331Z,41.73
2022-10-10T08:13:57.587Z,41.45
2022-10-10T08:16:27.101Z,42.35
2022-10-10T08:18:56.293Z,42.34
2022-10-10T08:21:25.612Z,41.59
2022-10-10T08:23:55.262Z,40.45
2022-10-10T08:26:24.775Z,39.93
2022-10-10T08:28:54.029Z,38.90
2022-10-10T08:31:24.032Z,38.21
2022-10-10T08:33:53.468Z,37.79
2022-10-10T08:36:24.184Z,37.17
2022-10-10T08:38:57.524Z,36.76
2022-10-10T08:41:32.453Z,36.71
2022-10-10T08:44:06.105Z,36.92
2022-10-10T08:46:37.764Z,36.41
2022-10-10T08:49:14.807Z,35.90
2022-10-10T08:51:47.804Z,35.81
2022-10-10T08:54:18.826Z,35.21
2022-10-10T08:56:48.734Z,34.77
2022-10-10T08:59:22.027Z,35.08
2022-10-10T09:02:18.462Z,35.27
2022-10-10T09:04:41.422Z,35.09
2022-10-10T09:07:18.432Z,36.01
2022-10-10T09:09:55.801Z,36.56
2022-10-10T09:12:29.021Z,36.50
2022-10-10T09:15:03.689Z,36.77
2022-10-10T09:17:38.865Z,37.73
2022-10-10T09:20:14.682Z,38.49
2022-10-10T09:22:48.397Z,38.82
2022-10-10T09:25:20.687Z,39.26
2022-10-10T09:27:55.178Z,39.96
2022-10-10T09:30:25.443Z,40.26
2022-10-10T09:32:57.261Z,40.92
2022-10-10T09:35:28.001Z,40.74
2022-10-10T09:38:01.869Z,40.46
2022-10-10T09:40:36.057Z,40.79
2022-10-10T09:43:12.425Z,41.19
2022-10-10T09:45:45.922Z,42.13
2022-10-10T09:48:15.543Z,42.42
2022-10-10T09:50:45.270Z,42.81
2022-10-10T09:53:15.633Z,42.83
2022-10-10T09:55:46.978Z,43.11
2022-10-10T09:58:20.739Z,43.34
2022-10-10T10:00:50.549Z,43.72
2022-10-10T10:03:20.623Z,43.58
2022-10-10T10:05:55.488Z,43.55
2022-10-10T10:08:25.990Z,43.92
2022-10-10T10:10:58.451Z,44.11
2022-10-10T10:13:31.031Z,43.85
2022-10-10T10:16:03.578Z,44.31
2022-10-10T10:18:38.925Z,44.91
2022-10-10T10:21:13.564Z,44.96
2022-10-10T10:23:44.284Z,45.07
2022-10-10T10:26:19.088Z,45.37
2022-10-10T10:28:48.921Z,45.25
2022-10-10T10:31:22.391Z,45.40
2022-10-10T10:33:55.396Z,45.62
2022-10-10T10:36:33.285Z,45.94
2022-10-10T10:39:07.936Z,46.22
2022-10-10T10:41:39.883Z,46.01
2022-10-10T10:44:18.495Z,45.83
2022-10-10T10:46:56.267Z,45.82
2022-10-10T10:49:29.849Z,46.23
2022-10-10T10:52:16.499Z,46.19
2022-10-10T10:54:52.040Z,46.18
2022-10-10T10:57:33.093Z,46.12
2022-10-10T11:00:20.273Z,46.09
2022-10-10T11:03:20.984Z,46.34
2022-10-10T11:06:01.584Z,46.63
2022-10-10T11:08:41.558Z,46.53
2022-10-10T11:11:21.169Z,46.93
2022-10-10T11:13:57.847Z,47.11
2022-10-10T11:16:47.284Z,47.06
2022-10-10T11:19:24.052Z,46.91
2022-10-10T11:21:57.062Z,46.76
2022-10-10T11:24:33.084Z,46.89
2022-10-10T11:27:06.910Z,47.39
2022-10-10T11:29:39.897Z,47.33
2022-10-10T11:32:12.513Z,47.16
2022-10-10T11:34:44.488Z,47.02
2022-10-10T11:37:17.544Z,47.00
2022-10-10T11:39:50.915Z,47.06
2022-10-10T11:42:21.794Z,46.88
2022-10-10T11:44:54.823Z,46.73
2022-10-10T11:47:26.878Z,46.38
2022-10-10T11:49:58.550Z,46.38
2022-10-10T11:52:34.900Z,46.62
2022-10-10T11:55:07.388Z,46.77
2022-10-10T11:57:40.910Z,47.02
2022-10-10T12:00:14.401Z,47.25
2022-10-10T12:02:45.059Z,47.32
2022-10-10T12:05:25.166Z,47.55
2022-10-10T12:08:03.908Z,47.48
2022-10-10T12:10:35.774Z,47.36
2022-10-10T12:13:09.553Z,47.41
2022-10-10T12:15:43.510Z,47.48
2022-10-10T12:18:26.406Z,47.57
2022-10-10T12:21:06.647Z,47.63
2022-10-10T12:23:36.355Z,47.44
2022-10-10T12:26:35.370Z,47.48
2022-10-10T12:29:05.991Z,47.51
2022-10-10T12:31:36.062Z,47.48
2022-10-10T12:34:07.934Z,47.65
2022-10-10T12:37:07.629Z,47.72
2022-10-10T12:39:38.829Z,47.98
2022-10-10T12:42:22.100Z,48.08
2022-10-10T12:44:51.382Z,48.19
2022-10-10T12:47:52.839Z,48.39
2022-10-10T12:50:25.328Z,48.54
2022-10-10T12:52:56.834Z,48.56
2022-10-10T12:55:28.392Z,48.50
2022-10-10T12:57:58.756Z,48.50
2022-10-10T13:00:29.236Z,48.41
2022-10-10T13:03:00.213Z,48.28
2022-10-10T13:05:31.934Z,48.28
2022-10-10T13:08:02.823Z,48.14
2022-10-10T13:10:32.578Z,48.10
2022-10-10T13:13:02.796Z,47.95
2022-10-10T13:15:32.722Z,48.01
2022-10-10T13:18:02.126Z,47.98
2022-10-10T13:20:34.922Z,47.91
2022-10-10T13:23:06.358Z,47.84
2022-10-10T13:25:37.173Z,47.96
2022-10-10T13:28:07.139Z,47.97
2022-10-10T13:30:38.876Z,48.04
2022-10-10T13:33:16.455Z,47.82
2022-10-10T13:35:46.568Z,47.60
2022-10-10T13:38:16.701Z,47.55
2022-10-10T13:40:46.294Z,47.27
2022-10-10T13:43:16.965Z,47.25
2022-10-10T13:45:51.370Z,47.33
2022-10-10T13:48:26.744Z,47.39
2022-10-10T13:51:04.062Z,47.32
2022-10-10T13:53:44.727Z,47.46
2022-10-10T13:56:15.741Z,47.45
2022-10-10T13:58:48.312Z,47.60
2022-10-10T14:01:29.605Z,47.48
2022-10-10T14:04:01.310Z,47.75
2022-10-10T14:06:30.608Z,47.78
2022-10-10T14:09:13.265Z,47.61
2022-10-10T14:11:43.499Z,47.48
2022-10-10T14:14:18.128Z,47.43
2022-10-10T14:16:57.600Z,47.45
2022-10-10T14:19:26.929Z,47.36
2022-10-10T14:21:56.151Z,47.26
2022-10-10T14:24:25.544Z,47.08
2022-10-10T14:26:54.906Z,47.17
2022-10-10T14:29:24.534Z,47.32
2022-10-10T14:31:53.739Z,47.20
2022-10-10T14:34:22.989Z,46.99
2022-10-10T14:36:52.288Z,46.73
2022-10-10T14:39:21.617Z,46.63
2022-10-10T14:41:50.877Z,46.55
2022-10-10T14:44:21.122Z,46.45
2022-10-10T14:46:50.480Z,46.33
2022-10-10T14:49:21.073Z,46.42
2022-10-10T14:51:50.602Z,46.61
2022-10-10T14:54:19.905Z,46.67
2022-10-10T14:57:06.887Z,46.55
2022-10-10T14:59:47.286Z,46.50
2022-10-10T15:02:20.769Z,46.50
2022-10-10T15:04:50.628Z,46.62
2022-10-10T15:07:20.699Z,46.60
2022-10-10T15:12:41.286Z,46.64
2022-10-10T15:15:12.341Z,46.66
2022-10-10T15:17:41.807Z,46.56
2022-10-10T15:20:12.648Z,46.67
2022-10-10T15:22:42.384Z,46.72
2022-10-10T15:25:11.928Z,46.74
2022-10-10T15:27:41.436Z,46.91
2022-10-10T15:30:12.173Z,47.00
2022-10-10T15:32:41.813Z,47.16
2022-10-10T15:35:14.637Z,47.34
2022-10-10T15:37:44.258Z,47.40
2022-10-10T15:40:15.997Z,47.48
2022-10-10T15:42:45.479Z,47.72
2022-10-10T15:45:30.918Z,47.88
2022-10-10T15:48:04.766Z,47.98
2022-10-10T15:50:39.258Z,48.11
2022-10-10T15:53:09.284Z,48.29
2022-10-10T15:55:43.478Z,48.44
2022-10-10T15:58:13.000Z,48.66
2022-10-10T16:00:43.993Z,48.80
2022-10-10T16:03:13.620Z,49.00
2022-10-10T16:05:43.560Z,49.21
2022-10-10T16:08:13.357Z,49.35
2022-10-10T16:10:46.080Z,49.52
2022-10-10T16:13:15.567Z,49.69
2022-10-10T16:15:44.829Z,49.91
2022-10-10T16:18:14.396Z,49.99
2022-10-10T16:20:43.989Z,50.20
2022-10-10T16:23:13.313Z,50.42
2022-10-10T16:25:51.783Z,50.51
2022-10-10T16:28:21.320Z,50.72
2022-10-10T16:30:52.057Z,50.81
2022-10-10T16:33:22.196Z,50.99
2022-10-10T16:35:53.365Z,51.04
2022-10-10T16:38:22.962Z,51.30
2022-10-10T16:40:57.710Z,51.39
2022-10-10T16:43:28.025Z,51.59
2022-10-10T16:46:01.324Z,51.77
2022-10-10T16:48:31.600Z,51.96
2022-10-10T16:51:04.034Z,52.13
2022-10-10T16:53:39.146Z,52.33
2022-10-10T16:56:21.564Z,52.44
2022-10-10T16:59:31.984Z,52.66
2022-10-10T17:02:15.499Z,52.99
2022-10-10T17:04:58.175Z,53.14
2022-10-10T17:07:29.020Z,53.21
2022-10-10T17:09:59.357Z,53.38
2022-10-10T17:12:28.913Z,53.62
2022-10-10T17:14:58.550Z,53.72
2022-10-10T17:17:28.183Z,53.82
2022-10-10T17:19:57.544Z,54.05
2022-10-10T17:22:27.524Z,54.12
2022-10-10T17:24:57.446Z,54.29
2022-10-10T17:27:27.340Z,54.26
2022-10-10T17:29:57.147Z,54.45
2022-10-10T17:32:26.550Z,54.62
2022-10-10T17:34:56.985Z,54.69
2022-10-10T17:37:26.240Z,54.83
2022-10-10T17:39:55.622Z,54.87
2022-10-10T17:42:25.278Z,55.11
2022-10-10T17:44:56.912Z,55.17
2022-10-10T17:47:26.348Z,55.24
2022-10-10T17:49:55.593Z,55.24
2022-10-10T17:52:26.052Z,55.47
2022-10-10T17:54:55.265Z,55.45
2022-10-10T17:57:24.686Z,55.53
2022-10-10T17:59:54.063Z,55.54
2022-10-10T18:02:23.520Z,55.76
2022-10-10T18:04:52.875Z,55.72
2022-10-10T18:07:22.710Z,55.97
2022-10-10T18:09:52.735Z,56.08
2022-10-10T18:12:22.415Z,56.02
2022-10-10T18:14:51.909Z,56.15
2022-10-10T18:17:21.299Z,56.21
2022-10-10T18:19:50.848Z,56.23
2022-10-10T18:22:20.219Z,56.51
2022-10-10T18:24:49.720Z,56.59
2022-10-10T18:27:21.002Z,56.80
2022-10-10T18:29:50.259Z,56.91
2022-10-10T18:32:19.790Z,57.00
2022-10-10T18:34:49.325Z,57.03
2022-10-10T18:37:18.807Z,57.17
2022-10-10T18:39:48.091Z,57.25
2022-10-10T18:42:17.738Z,57.35
2022-10-10T18:44:47.347Z,57.52
2022-10-10T18:47:16.635Z,57.62
2022-10-10T18:49:46.412Z,57.67
2022-10-10T18:52:15.925Z,57.83
2022-10-10T18:54:47.535Z,57.91
2022-10-10T18:57:17.753Z,58.13
2022-10-10T18:59:47.109Z,58.06
2022-10-10T19:02:16.338Z,58.16
2022-10-10T19:04:47.923Z,58.28
2022-10-10T19:07:17.348Z,58.41
2022-10-10T19:09:46.852Z,58.54
2022-10-10T19:12:16.361Z,58.48
2022-10-10T19:14:45.763Z,58.68
2022-10-10T19:17:14.982Z,58.63
2022-10-10T19:19:44.442Z,58.87
2022-10-10T19:22:13.641Z,58.90
2022-10-10T19:24:42.929Z,59.05
2022-10-10T19:27:12.272Z,59.23
2022-10-10T19:29:41.556Z,59.27
2022-10-10T19:32:10.830Z,59.30
2022-10-10T19:34:40.896Z,59.52
2022-10-10T19:37:10.351Z,59.71
2022-10-10T19:39:41.418Z,59.67
2022-10-10T19:42:10.647Z,59.77
2022-10-10T19:44:41.239Z,59.76
2022-10-10T19:47:10.545Z,60.04
2022-10-10T19:49:40.021Z,59.93
2022-10-10T19:52:09.742Z,60.02
2022-10-10T19:54:38.961Z,60.04
2022-10-10T19:57:08.304Z,60.13
2022-10-10T19:59:37.529Z,60.25
2022-10-10T20:02:06.852Z,60.28
2022-10-10T20:04:36.686Z,60.29
2022-10-10T20:07:06.280Z,60.38
2022-10-10T20:09:35.555Z,60.34
2022-10-10T20:12:04.916Z,60.33
2022-10-10T20:14:34.202Z,60.36
2022-10-10T20:17:03.657Z,60.62
2022-10-10T20:19:36.474Z,60.44
2022-10-10T20:22:08.979Z,60.54
2022-10-10T20:24:38.423Z,60.61
2022-10-10T20:27:07.914Z,60.65
2022-10-10T20:29:37.475Z,60.69
2022-10-10T20:32:07.049Z,60.73
2022-10-10T20:34:36.410Z,60.68
2022-10-10T20:37:06.234Z,60.80
2022-10-10T20:39:38.343Z,60.92
2022-10-10T20:42:08.161Z,61.11
2022-10-10T20:44:37.856Z,61.01
2022-10-10T20:47:07.654Z,61.14
2022-10-10T20:49:37.369Z,61.21
2022-10-10T20:52:06.924Z,61.20
2022-10-10T20:54:36.755Z,61.17
2022-10-10T20:57:06.383Z,61.35
2022-10-10T20:59:38.784Z,61.39
2022-10-10T21:02:08.424Z,61.50
2022-10-10T21:04:38.740Z,61.57
2022-10-10T21:07:08.257Z,61.36
2022-10-10T21:09:38.160Z,61.57
2022-10-10T21:12:08.484Z,61.51
2022-10-10T21:14:38.101Z,61.60
2022-10-10T21:17:08.046Z,61.66
2022-10-10T21:19:37.385Z,61.68
2022-10-10T21:22:06.940Z,61.77
2022-10-10T21:24:36.566Z,61.77
2022-10-10T21:27:15.521Z,61.82
2022-10-10T21:29:47.822Z,61.93
2022-10-10T21:32:17.210Z,61.77
2022-10-10T21:34:46.761Z,61.87
2022-10-10T21:37:16.349Z,61.94
2022-10-10T21:39:48.356Z,61.76
2022-10-10T21:42:26.867Z,61.83
2022-10-10T21:45:01.621Z,62.01
2022-10-10T21:47:33.362Z,61.94
2022-10-10T21:50:02.702Z,62.04
2022-10-10T21:52:32.178Z,61.97
2022-10-10T21:55:07.682Z,62.21
2022-10-10T21:57:37.414Z,62.27
2022-10-10T22:00:08.237Z,62.11
2022-10-10T22:02:41.871Z,62.26
2022-10-10T22:05:12.408Z,62.13
2022-10-10T22:07:42.649Z,62.27
2022-10-10T22:10:14.861Z,62.25
2022-10-10T22:12:47.640Z,62.40
2022-10-10T22:15:17.317Z,62.42
2022-10-10T22:17:50.079Z,62.25
2022-10-10T22:20:19.618Z,62.27
2022-10-10T22:22:53.022Z,62.32
2022-10-10T22:25:22.824Z,62.22
2022-10-10T22:27:55.145Z,62.26
2022-10-10T22:30:26.753Z,62.12
2022-10-10T22:32:59.113Z,62.31
2022-10-10T22:35:31.986Z,62.19
2022-10-10T22:38:22.006Z,62.21
2022-10-10T22:40:56.257Z,62.26
2022-10-10T22:43:27.954Z,62.21
2022-10-10T22:45:57.541Z,62.13
2022-10-10T22:48:27.576Z,62.10
2022-10-10T22:51:07.857Z,62.21
2022-10-10T22:53:37.219Z,62.09
2022-10-10T22:56:07.327Z,62.04
2022-10-10T22:58:38.937Z,62.13
2022-10-10T23:01:11.717Z,62.28
2022-10-10T23:03:41.493Z,62.08
2022-10-10T23:06:11.310Z,62.06
2022-10-10T23:08:40.680Z,62.27
2022-10-10T23:11:10.266Z,62.42
2022-10-10T23:13:40.113Z,62.33
2022-10-10T23:16:13.415Z,62.38
2022-10-10T23:18:53.742Z,62.40
2022-10-10T23:21:26.132Z,62.49
2022-10-10T23:24:01.923Z,62.57
2022-10-10T23:26:43.010Z,62.49
2022-10-10T23:29:22.491Z,62.61
2022-10-10T23:31:51.849Z,62.43
2022-10-10T23:34:21.117Z,62.47
2022-10-10T23:36:50.351Z,62.48
2022-10-10T23:39:24.682Z,62.46
2022-10-10T23:41:58.266Z,62.65
2022-10-10T23:44:28.092Z,62.57
2022-10-10T23:46:57.366Z,62.57
2022-10-10T23:49:26.765Z,62.60
2022-10-10T23:51:56.346Z,62.69
2022-10-10T23:54:33.645Z,62.85
2022-10-10T23:57:03.301Z,62.71
2022-10-10T23:59:35.809Z,62.68
